Time;durP1;ratioP1;P1;durP2;ratioP2;P2;SDS_P1;SDS_P2;PMS_P1;PMS_P2;Temp;Humidity;BMP_temperature;BMP_pressure;BME280_temperature;BME280_humidity;BME280_pressure;Samples;Min_cycle;Max_cycle;Signal;HPM_P1;HPM_P2
2022/01/26 00:06:10;;;;;;;23.83;19.80;;;;;;;6.55;47.78;99809.66;1804031;78;21033;-69
2022/01/26 00:08:37;;;;;;;24.87;19.45;;;;;;;6.55;47.79;99806.16;1808754;78;21196;-69
2022/01/26 00:11:04;;;;;;;25.43;20.95;;;;;;;6.55;47.78;99801.74;1796855;78;21501;-69
2022/01/26 00:13:30;;;;;;;25.77;19.95;;;;;;;6.56;47.78;99805.20;1819821;78;21072;-69
2022/01/26 00:15:59;;;;;;;25.15;20.12;;;;;;;6.56;47.80;99807.35;1798814;78;21458;-69
2022/01/26 00:18:30;;;;;;;23.38;18.75;;;;;;;6.55;47.79;99797.78;1770518;80;21021;-69
2022/01/26 00:21:03;;;;;;;25.77;20.20;;;;;;;6.57;47.82;99801.61;1740524;81;21060;-68
2022/01/26 00:24:02;;;;;;;26.07;20.40;;;;;;;6.57;47.80;99793.69;1739555;81;21073;-69
2022/01/26 00:26:11;;;;;;;27.15;19.48;;;;;;;6.58;47.78;99795.34;1745352;81;21026;-69
2022/01/26 00:28:46;;;;;;;27.48;20.25;;;;;;;6.57;47.80;99785.27;1750320;81;21058;-71
2022/01/26 00:39:01;;;;;;;27.65;21.25;;;;;;;6.58;47.82;99777.69;1757685;79;21058;-70
2022/01/26 00:41:37;;;;;;;26.33;20.60;;;;;;;6.58;47.80;99780.82;1750000;79;21105;-69
2022/01/26 00:44:03;;;;;;;27.65;20.90;;;;;;;6.58;47.80;99771.58;1748850;79;21058;-69
2022/01/26 00:46:31;;;;;;;27.90;21.07;;;;;;;6.59;47.80;99762.70;1771584;79;21398;-69
2022/01/26 00:48:57;;;;;;;25.50;20.23;;;;;;;6.58;47.82;99768.45;1737972;79;21538;-69
2022/01/26 00:51:24;;;;;;;26.82;21.05;;;;;;;6.60;47.81;99772.27;1767145;80;21069;-70
2022/01/26 00:53:59;;;;;;;28.27;21.80;;;;;;;6.59;47.81;99770.63;1735171;80;21128;-70
2022/01/26 00:56:19;;;;;;;27.07;21.17;;;;;;;6.61;47.80;99767.35;1736791;79;21030;-69
2022/01/26 00:58:47;;;;;;;26.85;20.75;;;;;;;6.61;47.80;99771.31;1734242;80;21014;-70
2022/01/26 01:01:14;;;;;;;28.57;21.48;;;;;;;6.60;47.80;99763.86;1741657;79;21082;-70
2022/01/26 01:03:44;;;;;;;28.45;22.05;;;;;;;6.61;47.80;99766.03;1752175;81;21030;-70
2022/01/26 01:06:22;;;;;;;27.10;21.15;;;;;;;6.61;47.80;99764.22;1744462;81;21022;-69
2022/01/26 01:08:41;;;;;;;28.45;22.50;;;;;;;6.62;47.79;99762.40;1742543;79;21583;-69
2022/01/26 01:11:10;;;;;;;25.80;21.40;;;;;;;6.62;47.79;99759.77;1738488;80;21177;-69
2022/01/26 01:13:39;;;;;;;28.25;21.30;;;;;;;6.62;47.79;99754.48;1743173;79;21050;-70
2022/01/26 01:16:07;;;;;;;28.07;22.77;;;;;;;6.62;47.81;99752.67;1753510;79;21503;-70
2022/01/26 01:24:01;;;;;;;28.27;22.45;;;;;;;6.64;47.79;99743.29;1737432;80;21257;-69
2022/01/26 01:26:26;;;;;;;27.27;20.77;;;;;;;6.65;47.77;99742.33;1745033;80;21089;-70
2022/01/26 01:31:18;;;;;;;25.88;21.10;;;;;;;6.65;47.78;99733.92;1737088;80;21551;-69
2022/01/26 01:33:45;;;;;;;27.67;21.95;;;;;;;6.66;47.79;99730.78;1741103;79;21018;-69
2022/01/26 01:36:11;;;;;;;26.62;20.68;;;;;;;6.64;47.79;99723.00;1763719;80;21567;-69
2022/01/26 01:38:43;;;;;;;28.62;21.23;;;;;;;6.64;47.79;99717.72;1744617;80;21101;-70
2022/01/26 01:41:09;;;;;;;26.42;21.75;;;;;;;6.64;47.80;99719.03;1736002;81;21070;-70
2022/01/26 01:43:37;;;;;;;27.95;22.25;;;;;;;6.65;47.81;99713.29;1760964;80;21482;-70
2022/01/26 01:46:04;;;;;;;28.32;22.02;;;;;;;6.65;47.81;99712.80;1753537;81;21041;-70
2022/01/26 01:48:32;;;;;;;28.57;22.40;;;;;;;6.66;47.79;99704.38;1783251;80;21062;-70
2022/01/26 01:51:03;;;;;;;28.05;22.55;;;;;;;6.66;47.81;99701.74;1749044;82;21006;-69
2022/01/26 01:53:37;;;;;;;27.32;21.82;;;;;;;6.67;47.80;99708.70;1779568;80;21559;-70
2022/01/26 01:56:00;;;;;;;27.37;21.48;;;;;;;6.66;47.79;99699.95;1774063;79;21579;-67
2022/01/26 01:58:28;;;;;;;26.35;21.35;;;;;;;6.68;47.80;99703.75;1737218;81;21022;-68
2022/01/26 02:00:54;;;;;;;27.98;21.35;;;;;;;6.67;47.80;99704.73;1800977;78;21063;-69
2022/01/26 02:03:20;;;;;;;27.02;21.90;;;;;;;6.67;47.80;99701.60;1791977;78;21048;-68
2022/01/26 02:05:48;;;;;;;29.48;22.93;;;;;;;6.67;47.80;99694.18;1791184;78;21053;-70
2022/01/26 02:08:14;;;;;;;29.42;22.65;;;;;;;6.67;47.80;99704.24;1791012;79;21038;-70
2022/01/26 02:10:41;;;;;;;27.73;21.10;;;;;;;6.68;47.79;99699.78;1791822;78;21108;-70
2022/01/26 02:13:18;;;;;;;29.30;22.80;;;;;;;6.67;47.80;99693.69;1800046;78;21902;-69
2022/01/26 02:15:46;;;;;;;28.77;22.77;;;;;;;6.68;47.81;99699.78;1807546;78;21520;-69
2022/01/26 02:18:18;;;;;;;30.30;21.90;;;;;;;6.68;47.82;99698.47;1797115;78;21029;-69
2022/01/26 02:51:17;;;;;;;28.45;21.75;;;;;;;6.64;47.93;99696.59;1789425;78;20998;-69
2022/01/26 02:56:15;;;;;;;28.45;22.15;;;;;;;6.64;47.97;99695.28;1802382;77;21955;-70
2022/01/26 03:04:04;;;;;;;30.82;22.27;;;;;;;6.64;47.96;99694.45;1784948;78;21025;-70
2022/01/26 03:06:30;;;;;;;29.45;22.10;;;;;;;6.65;47.98;99696.13;1803999;78;21143;-69
2022/01/26 03:08:58;;;;;;;28.27;21.97;;;;;;;6.66;47.98;99701.74;1791819;77;21029;-68
2022/01/26 03:11:21;;;;;;;28.60;22.22;;;;;;;6.66;47.98;99698.64;1819515;78;21518;-68
2022/01/26 03:14:00;;;;;;;31.17;22.13;;;;;;;6.67;47.98;99702.09;1820011;78;21092;-71
2022/01/26 03:16:31;;;;;;;28.95;22.70;;;;;;;6.67;47.99;99699.45;1817726;78;21000;-71
2022/01/26 03:18:59;;;;;;;27.30;21.48;;;;;;;6.68;47.97;99706.39;1817935;78;21198;-70
2022/01/26 03:21:24;;;;;;;26.95;21.23;;;;;;;6.68;47.98;99706.39;1818254;78;21030;-71
2022/01/26 03:29:42;;;;;;;30.50;23.65;;;;;;;6.70;47.98;99712.35;1820346;78;21022;-70
2022/01/26 03:32:38;;;;;;;31.45;22.67;;;;;;;6.69;47.98;99711.53;1817230;78;21142;-71
2022/01/26 03:34:25;;;;;;;30.02;22.45;;;;;;;6.68;47.98;99713.84;1811134;78;20993;-70
2022/01/26 03:36:59;;;;;;;28.57;22.73;;;;;;;6.70;47.99;99713.67;1793313;77;21029;-70
2022/01/26 03:39:24;;;;;;;27.30;21.48;;;;;;;6.71;48.01;99715.84;1817406;77;21041;-70
2022/01/26 03:42:05;;;;;;;28.05;21.73;;;;;;;6.71;48.01;99714.53;1818031;77;21021;-70
2022/01/26 03:44:26;;;;;;;28.85;22.45;;;;;;;6.72;47.99;99706.94;1816354;78;21110;-70
2022/01/26 03:46:53;;;;;;;27.73;22.20;;;;;;;6.71;48.01;99704.80;1806331;77;21030;-70
2022/01/26 03:49:19;;;;;;;30.02;22.37;;;;;;;6.72;48.01;99710.89;1793671;78;21075;-69
2022/01/26 03:51:46;;;;;;;28.92;22.65;;;;;;;6.73;48.00;99714.72;1828850;77;21002;-69
2022/01/26 03:54:14;;;;;;;32.17;23.95;;;;;;;6.74;48.02;99710.27;1815502;77;20998;-70
2022/01/26 03:56:41;;;;;;;28.65;22.77;;;;;;;6.74;48.01;99712.44;1818752;77;21274;-70
2022/01/26 03:59:08;;;;;;;29.45;22.87;;;;;;;6.76;47.99;99712.27;1803584;78;20993;-70
2022/01/26 04:01:34;;;;;;;29.40;22.42;;;;;;;6.75;48.00;99715.90;1794843;78;21037;-69
2022/01/26 04:04:01;;;;;;;28.60;21.52;;;;;;;6.75;48.00;99723.33;1805487;78;21321;-68
2022/01/26 04:06:29;;;;;;;28.95;22.67;;;;;;;6.76;47.99;99725.00;1821628;77;20989;-69
2022/01/26 04:08:56;;;;;;;32.13;24.15;;;;;;;6.76;48.00;99722.36;1810066;78;21249;-70
2022/01/26 04:13:51;;;;;;;31.57;22.62;;;;;;;6.77;48.01;99725.33;1811950;78;21006;-70
2022/01/26 04:16:18;;;;;;;30.75;23.20;;;;;;;6.78;48.00;99720.41;1811149;78;21096;-69
2022/01/26 04:18:45;;;;;;;27.65;21.85;;;;;;;6.79;47.99;99726.02;1795589;78;21556;-70
2022/01/26 04:23:52;;;;;;;26.82;21.15;;;;;;;6.79;48.00;99728.66;1801167;78;21065;-71
2022/01/26 04:26:19;;;;;;;27.98;21.35;;;;;;;6.81;48.00;99726.70;1812782;78;21021;-70
2022/01/26 04:28:55;;;;;;;28.98;22.65;;;;;;;6.81;48.00;99724.56;1793650;78;21508;-70
2022/01/26 04:31:15;;;;;;;29.95;22.95;;;;;;;6.81;48.01;99729.34;1814411;77;21021;-70
2022/01/26 04:33:42;;;;;;;30.55;22.30;;;;;;;6.81;48.00;99728.02;1806510;77;23224;-73
2022/01/26 04:36:12;;;;;;;28.57;22.15;;;;;;;6.81;48.02;99722.75;1794156;78;21045;-70
2022/01/26 04:38:46;;;;;;;28.80;22.87;;;;;;;6.81;48.01;99721.42;1755280;81;20997;-70
2022/01/26 04:41:24;;;;;;;28.47;22.22;;;;;;;6.82;48.01;99732.34;1762437;80;21045;-71
2022/01/26 04:43:37;;;;;;;29.40;22.32;;;;;;;6.83;48.02;99730.53;1751847;81;21056;-70
2022/01/26 04:46:02;;;;;;;29.75;22.13;;;;;;;6.83;48.00;99726.07;1769604;81;21105;-71
2022/01/26 04:48:28;;;;;;;31.77;23.50;;;;;;;6.84;48.01;99725.11;1775898;80;21547;-71
2022/01/26 04:50:54;;;;;;;30.17;22.73;;;;;;;6.85;48.01;99732.53;1767865;80;21046;-70
2022/01/26 04:53:21;;;;;;;28.65;23.52;;;;;;;6.85;48.01;99733.36;1753920;79;21598;-71
2022/01/26 04:55:47;;;;;;;28.30;22.32;;;;;;;6.85;48.01;99730.72;1721540;83;21077;-70
2022/01/26 04:58:13;;;;;;;30.40;22.70;;;;;;;6.85;47.99;99730.72;1752206;80;21099;-72
2022/01/26 05:00:40;;;;;;;27.58;21.95;;;;;;;6.86;48.01;99736.86;1737890;80;21062;-72
2022/01/26 05:03:06;;;;;;;31.90;23.90;;;;;;;6.86;48.02;99734.22;1760903;79;21042;-71
2022/01/26 05:05:33;;;;;;;29.25;22.50;;;;;;;6.86;48.02;99741.64;1784405;80;21029;-71
2022/01/26 05:07:59;;;;;;;30.37;23.22;;;;;;;6.87;48.03;99747.25;1761617;80;21134;-70
2022/01/26 05:10:28;;;;;;;28.90;21.82;;;;;;;6.87;48.04;99746.42;1819501;77;21494;-71
2022/01/26 05:12:55;;;;;;;30.17;22.93;;;;;;;6.87;48.03;99749.89;1812803;78;20989;-69
2022/01/26 05:15:23;;;;;;;30.45;21.90;;;;;;;6.88;48.03;99752.89;1809044;77;21045;-69
2022/01/26 05:17:49;;;;;;;28.57;21.50;;;;;;;6.88;48.04;99754.20;1807352;78;21072;-70
2022/01/26 05:20:16;;;;;;;27.30;20.75;;;;;;;6.88;48.03;99755.53;1815339;77;21001;-70
2022/01/26 05:22:44;;;;;;;28.10;22.35;;;;;;;6.90;48.04;99755.39;1808896;78;21537;-70
2022/01/26 05:25:12;;;;;;;27.98;21.12;;;;;;;6.89;48.01;99757.20;1800329;78;21037;-70
2022/01/26 05:27:39;;;;;;;27.32;22.35;;;;;;;6.91;48.05;99758.86;1823399;77;21021;-70
2022/01/26 05:30:07;;;;;;;28.87;21.93;;;;;;;6.89;48.04;99754.56;1818392;77;21045;-70
2022/01/26 05:32:34;;;;;;;27.98;21.25;;;;;;;6.90;48.03;99759.35;1794150;78;21041;-70
2022/01/26 05:35:00;;;;;;;30.10;22.70;;;;;;;6.89;48.03;99767.77;1811845;77;23355;-70
2022/01/26 05:37:26;;;;;;;26.68;21.48;;;;;;;6.89;48.03;99765.13;1823295;78;21089;-71
2022/01/26 05:39:52;;;;;;;28.05;21.65;;;;;;;6.90;48.04;99768.59;1812460;78;21061;-69
2022/01/26 05:42:19;;;;;;;29.40;21.55;;;;;;;6.91;48.03;99768.10;1817712;77;20962;-70
2022/01/26 05:44:45;;;;;;;27.48;21.20;;;;;;;6.91;48.04;99768.10;1822860;77;21056;-69
2022/01/26 05:47:17;;;;;;;29.23;22.82;;;;;;;6.92;48.04;99781.66;1804751;78;21138;-71
2022/01/26 05:49:40;;;;;;;27.73;21.07;;;;;;;6.91;48.04;99772.06;1812711;79;21018;-70
2022/01/26 05:52:07;;;;;;;28.30;22.13;;;;;;;6.92;48.05;99780.34;1806286;78;21533;-69
2022/01/26 05:54:33;;;;;;;28.27;22.37;;;;;;;6.93;48.07;99779.35;1795886;79;21439;-69
2022/01/26 05:57:00;;;;;;;28.25;21.57;;;;;;;6.92;48.04;99778.53;1807901;77;21030;-71
2022/01/26 05:59:26;;;;;;;28.02;21.27;;;;;;;6.87;48.04;99776.30;1786129;78;21578;-69
2022/01/26 06:01:53;;;;;;;29.23;22.90;;;;;;;6.93;48.04;99779.35;1782331;80;21045;-70
2022/01/26 06:04:19;;;;;;;27.55;21.90;;;;;;;6.93;48.05;99781.99;1828346;78;20974;-69
2022/01/26 06:06:45;;;;;;;26.75;20.97;;;;;;;6.93;48.05;99784.63;1814553;78;21672;-69
2022/01/26 06:09:12;;;;;;;26.87;21.20;;;;;;;6.94;48.06;99792.91;1811965;78;21048;-70
2022/01/26 06:11:38;;;;;;;28.70;20.57;;;;;;;6.93;48.05;99788.59;1788943;79;21086;-70
2022/01/26 06:14:05;;;;;;;28.60;21.75;;;;;;;6.93;48.04;99792.55;1809817;77;21077;-69
2022/01/26 06:16:31;;;;;;;27.67;20.95;;;;;;;6.92;48.07;99790.41;1812215;78;21008;-68
2022/01/26 06:18:58;;;;;;;29.55;21.55;;;;;;;6.93;48.05;99788.59;1783641;78;21076;-70
2022/01/26 06:21:24;;;;;;;28.40;20.92;;;;;;;6.93;48.05;99792.55;1786994;79;21010;-70
2022/01/26 06:23:51;;;;;;;29.32;22.45;;;;;;;6.94;48.06;99794.23;1783970;78;21801;-68
2022/01/26 06:26:17;;;;;;;28.77;22.27;;;;;;;6.93;48.05;99796.52;1782955;79;20962;-68
2022/01/26 06:28:43;;;;;;;29.05;22.30;;;;;;;6.94;48.07;99801.66;1782602;79;21999;-69
2022/01/26 06:31:11;;;;;;;26.07;21.00;;;;;;;6.94;48.06;99802.98;1803003;79;21082;-70
2022/01/26 06:33:39;;;;;;;26.15;20.45;;;;;;;6.95;48.04;99807.77;1720186;81;21080;-70
2022/01/26 06:36:06;;;;;;;27.15;21.12;;;;;;;6.95;48.06;99796.70;1763973;81;21151;-70
2022/01/26 06:38:32;;;;;;;27.65;20.88;;;;;;;6.95;48.06;99795.89;1734295;81;21538;-69
2022/01/26 06:41:00;;;;;;;25.02;19.80;;;;;;;6.96;48.05;99808.95;1757616;81;20995;-70
2022/01/26 06:43:30;;;;;;;26.23;19.65;;;;;;;6.97;48.06;99807.14;1751401;80;21593;-70
2022/01/26 06:46:07;;;;;;;29.23;22.37;;;;;;;6.96;48.04;99808.95;1734789;81;21051;-71
2022/01/26 06:48:42;;;;;;;26.70;20.43;;;;;;;6.97;48.05;99813.74;1753312;80;21063;-70
2022/01/26 06:50:55;;;;;;;27.27;19.62;;;;;;;6.97;48.04;99817.20;1740847;80;21013;-69
2022/01/26 06:53:22;;;;;;;27.32;20.05;;;;;;;6.98;48.05;99812.78;1757014;81;21039;-70
2022/01/26 06:55:49;;;;;;;26.85;20.80;;;;;;;6.94;48.04;99813.55;1761605;81;21496;-69
2022/01/26 06:58:15;;;;;;;28.32;20.77;;;;;;;6.97;48.05;99829.09;1756623;81;21116;-70
2022/01/26 07:00:42;;;;;;;27.35;20.50;;;;;;;6.98;48.05;99825.98;1759388;80;21616;-68
2022/01/26 07:03:08;;;;;;;27.75;20.97;;;;;;;6.99;48.04;99832.45;1752936;81;21108;-71
2022/01/26 07:05:35;;;;;;;28.12;21.27;;;;;;;6.98;48.04;99836.05;1743520;80;21058;-70
2022/01/26 07:08:02;;;;;;;27.90;20.92;;;;;;;6.99;48.05;99841.70;1753040;81;21061;-70
2022/01/26 07:10:29;;;;;;;26.40;20.10;;;;;;;7.00;48.06;99846.48;1763996;79;21021;-69
2022/01/26 07:12:55;;;;;;;28.27;21.37;;;;;;;7.00;48.04;99845.16;1766894;81;21117;-67
2022/01/26 07:23:31;;;;;;;27.20;19.77;;;;;;;7.00;48.04;99844.67;1766875;79;21152;-70
2022/01/26 07:25:57;;;;;;;24.82;18.85;;;;;;;7.01;48.04;99856.91;1771966;81;21111;-69
2022/01/26 07:28:24;;;;;;;26.02;20.12;;;;;;;7.01;48.05;99848.13;1763003;80;21084;-69
2022/01/26 07:30:50;;;;;;;26.75;19.92;;;;;;;7.03;48.06;99864.20;1812260;78;21454;-73
2022/01/26 07:33:17;;;;;;;27.15;20.40;;;;;;;7.02;48.05;99861.20;1815541;78;21128;-71
2022/01/26 07:35:44;;;;;;;25.30;20.05;;;;;;;7.02;48.19;99865.66;1817211;78;22020;-67
2022/01/26 07:38:10;;;;;;;26.05;20.02;;;;;;;7.03;48.50;99861.56;1812623;77;21137;-68
2022/01/26 07:40:39;;;;;;;26.75;19.35;;;;;;;7.04;48.54;99871.14;1802508;77;20992;-68
2022/01/26 07:43:05;;;;;;;27.25;20.15;;;;;;;7.06;48.55;99877.11;1822905;78;21033;-68
2022/01/26 07:45:32;;;;;;;24.20;18.27;;;;;;;7.06;48.54;99867.86;1801545;78;21072;-67
2022/01/26 07:47:58;;;;;;;25.57;19.70;;;;;;;7.07;48.51;99872.19;1804138;77;21509;-66
2022/01/26 07:50:24;;;;;;;25.15;19.37;;;;;;;7.08;48.50;99869.88;1781238;79;21048;-66
2022/01/26 07:52:51;;;;;;;25.50;19.48;;;;;;;7.10;48.47;99868.42;1800206;79;20963;-65
2022/01/26 07:55:19;;;;;;;26.73;20.08;;;;;;;7.12;48.46;99876.20;1809065;78;21474;-65
2022/01/26 07:57:48;;;;;;;23.62;18.45;;;;;;;7.13;48.42;99876.53;1803192;77;21667;-65
2022/01/26 08:00:15;;;;;;;23.02;18.82;;;;;;;7.14;48.38;99886.97;1806783;77;21557;-62
2022/01/26 08:02:42;;;;;;;24.00;18.15;;;;;;;7.15;48.34;99890.47;1813117;79;21486;-64
2022/01/26 08:05:10;;;;;;;23.10;17.85;;;;;;;7.16;48.33;99888.98;1799595;78;20986;-62
2022/01/26 08:07:37;;;;;;;25.17;19.70;;;;;;;7.17;48.32;99895.95;1804827;78;21080;-61
2022/01/26 08:10:06;;;;;;;23.73;18.00;;;;;;;7.19;48.30;99893.17;1813906;79;21538;-64
2022/01/26 08:12:33;;;;;;;23.83;17.87;;;;;;;7.20;48.26;99896.14;1802621;79;21105;-62
2022/01/26 08:15:00;;;;;;;24.75;18.25;;;;;;;7.22;48.25;99896.83;1801575;78;21860;-63
2022/01/26 08:17:28;;;;;;;24.27;17.87;;;;;;;7.23;48.23;99899.83;1809984;78;21042;-63
2022/01/26 08:19:56;;;;;;;22.67;17.60;;;;;;;7.24;48.22;99898.38;1812514;79;21036;-64
2022/01/26 08:22:25;;;;;;;23.30;17.30;;;;;;;7.24;48.19;99901.02;1808633;78;21249;-65
2022/01/26 08:24:51;;;;;;;21.87;16.70;;;;;;;7.26;48.16;99907.45;1812659;78;21372;-64
2022/01/26 08:27:20;;;;;;;21.33;16.37;;;;;;;7.28;48.14;99905.50;1787034;78;21066;-63
2022/01/26 08:29:53;;;;;;;24.00;18.10;;;;;;;7.31;48.11;99900.44;1744343;81;21014;-64
2022/01/26 08:32:17;;;;;;;21.68;16.67;;;;;;;7.32;48.09;99903.41;1741122;81;21000;-63
2022/01/26 08:34:43;;;;;;;21.93;17.95;;;;;;;7.33;48.07;99900.63;1744245;81;22290;-64
2022/01/26 08:37:10;;;;;;;23.45;18.60;;;;;;;7.34;48.07;99900.98;1744674;81;20998;-64
2022/01/26 08:39:37;;;;;;;22.07;17.17;;;;;;;7.36;48.06;99903.47;1748966;80;21485;-64
2022/01/26 08:42:09;;;;;;;22.15;17.77;;;;;;;7.38;48.01;99905.47;1732858;81;21105;-63
2022/01/26 08:44:35;;;;;;;22.13;17.10;;;;;;;7.40;47.99;99907.52;1761202;80;21580;-63
2022/01/26 08:47:03;;;;;;;21.07;16.50;;;;;;;7.41;47.98;99910.48;1766170;80;21584;-63
2022/01/26 08:49:31;;;;;;;21.73;17.57;;;;;;;7.43;47.97;99908.53;1771940;80;21001;-64
2022/01/26 08:51:58;;;;;;;22.60;16.77;;;;;;;7.45;47.94;99917.15;1818277;78;21216;-64
2022/01/26 08:54:24;;;;;;;20.77;15.85;;;;;;;7.46;47.94;99915.69;1822202;78;21640;-63
2022/01/26 08:56:50;;;;;;;19.60;15.03;;;;;;;7.48;47.92;99914.23;1823029;78;21317;-63
2022/01/26 08:59:18;;;;;;;20.88;15.90;;;;;;;7.50;47.91;99918.06;1821684;77;21024;-62
2022/01/26 09:01:45;;;;;;;20.27;16.30;;;;;;;7.52;47.92;99915.60;1822313;78;21030;-63
2022/01/26 09:04:12;;;;;;;20.50;15.80;;;;;;;7.53;47.87;99911.97;1830687;78;21627;-64
2022/01/26 09:06:50;;;;;;;18.57;15.45;;;;;;;7.55;47.86;99911.36;1825484;78;21056;-63
2022/01/26 09:09:07;;;;;;;19.25;15.40;;;;;;;7.57;47.85;99915.16;1823550;77;21038;-63
2022/01/26 09:11:37;;;;;;;21.02;15.00;;;;;;;7.58;47.82;99913.70;1774478;80;21478;-64
2022/01/26 09:14:08;;;;;;;20.15;16.15;;;;;;;7.60;47.81;99915.70;1781966;80;22095;-64
2022/01/26 09:16:31;;;;;;;18.25;15.05;;;;;;;7.62;47.82;99913.75;1781878;80;21573;-63
2022/01/26 09:19:05;;;;;;;17.50;13.55;;;;;;;7.63;47.78;99915.43;1775486;79;21041;-62
2022/01/26 09:21:26;;;;;;;18.80;15.50;;;;;;;7.64;47.78;99918.41;1769537;79;21471;-63
2022/01/26 09:23:52;;;;;;;18.60;14.75;;;;;;;7.65;47.76;99913.47;1758593;80;21114;-62
2022/01/26 09:26:19;;;;;;;18.90;14.85;;;;;;;7.66;47.76;99915.62;1780627;80;21049;-64
2022/01/26 09:28:45;;;;;;;17.82;14.70;;;;;;;7.67;47.74;99911.52;1756725;80;21156;-63
2022/01/26 09:31:12;;;;;;;17.37;14.53;;;;;;;7.69;47.75;99912.70;1782788;79;21572;-62
2022/01/26 09:33:38;;;;;;;19.07;14.98;;;;;;;7.71;47.72;99911.20;1750240;80;21032;-63
2022/01/26 09:36:05;;;;;;;18.77;15.08;;;;;;;7.73;47.68;99913.24;1755269;80;21076;-63
2022/01/26 09:38:33;;;;;;;17.87;13.98;;;;;;;7.73;47.70;99914.07;1793569;79;21378;-63
2022/01/26 09:40:59;;;;;;;19.35;15.05;;;;;;;7.70;47.68;99902.95;1774954;80;21138;-61
2022/01/26 09:43:27;;;;;;;16.70;13.48;;;;;;;7.75;47.67;99916.08;1795789;78;21780;-64
2022/01/26 09:45:54;;;;;;;17.37;14.15;;;;;;;7.77;47.65;99917.26;1806017;78;21096;-61
2022/01/26 09:48:20;;;;;;;17.45;14.03;;;;;;;7.77;47.62;99916.77;1821601;78;21104;-61
2022/01/26 09:50:53;;;;;;;17.73;13.95;;;;;;;7.79;47.64;99917.45;1811568;77;21036;-63
2022/01/26 09:53:20;;;;;;;17.65;13.30;;;;;;;7.81;47.63;99918.63;1812701;77;21555;-63
2022/01/26 09:55:46;;;;;;;17.90;14.28;;;;;;;7.82;47.61;99916.31;1821436;78;21005;-62
2022/01/26 09:58:12;;;;;;;16.20;13.15;;;;;;;7.83;47.61;99919.31;1823193;77;21032;-62
2022/01/26 10:00:39;;;;;;;15.78;13.32;;;;;;;7.85;47.59;99916.86;1808758;77;21059;-63
2022/01/26 10:03:06;;;;;;;16.90;13.75;;;;;;;7.85;47.57;99920.83;1807501;78;21493;-62
2022/01/26 10:05:45;;;;;;;17.17;14.33;;;;;;;7.87;47.57;99918.86;1823266;78;21120;-62
2022/01/26 10:19:06;;;;;;;15.65;11.88;;;;;;;7.93;47.54;99925.39;1808255;77;21133;-64
2022/01/26 10:21:52;;;;;;;15.45;13.13;;;;;;;7.94;47.55;99911.66;1807624;77;21004;-64
2022/01/26 10:24:20;;;;;;;17.00;13.28;;;;;;;7.95;47.55;99916.81;1792827;78;21074;-65
2022/01/26 10:26:49;;;;;;;16.20;12.37;;;;;;;7.97;47.51;99918.82;1829893;77;21026;-65
2022/01/26 10:29:16;;;;;;;14.50;12.25;;;;;;;7.98;47.54;99920.50;1830294;77;21486;-64
2022/01/26 10:31:43;;;;;;;15.63;13.68;;;;;;;8.00;47.50;99920.36;1824153;77;21119;-64
2022/01/26 10:34:17;;;;;;;16.00;12.73;;;;;;;8.01;47.53;99921.51;1797815;78;21608;-65
2022/01/26 10:36:54;;;;;;;16.35;12.90;;;;;;;8.04;47.49;99924.37;1832196;77;21092;-63
2022/01/26 10:42:01;;;;;;;15.53;11.93;;;;;;;8.08;47.46;99918.63;1794028;78;21123;-64
2022/01/26 10:44:37;;;;;;;13.50;11.20;;;;;;;8.13;47.43;99914.70;1793431;78;21971;-64
2022/01/26 10:47:04;;;;;;;13.75;11.00;;;;;;;8.16;47.41;99918.38;1795007;78;21076;-64
2022/01/26 10:50:06;;;;;;;12.93;11.03;;;;;;;8.18;47.39;99909.80;1812450;78;21069;-64
2022/01/26 10:52:30;;;;;;;13.30;10.95;;;;;;;8.23;47.36;99913.67;1818165;77;21049;-63
2022/01/26 10:54:48;;;;;;;12.63;11.05;;;;;;;8.26;47.32;99917.33;1815643;78;21084;-64
2022/01/26 10:57:15;;;;;;;13.18;11.18;;;;;;;8.30;47.31;99916.55;1822377;77;21152;-65
2022/01/26 10:59:44;;;;;;;12.43;9.90;;;;;;;8.34;47.27;99915.77;1814448;77;21034;-66
2022/01/26 11:04:43;;;;;;;18.23;11.75;;;;;;;8.46;47.19;99913.29;1836725;76;27475;-62
2022/01/26 11:07:12;;;;;;;12.00;10.03;;;;;;;8.46;47.13;99918.09;1809998;78;21089;-63
2022/01/26 11:09:45;;;;;;;13.78;11.15;;;;;;;8.51;47.10;99912.83;1812446;78;21105;-63
2022/01/26 11:12:13;;;;;;;14.00;11.17;;;;;;;8.54;47.05;99918.66;1810491;77;21082;-63
2022/01/26 11:14:46;;;;;;;13.62;10.68;;;;;;;8.58;47.03;99912.58;1810107;78;21026;-63
2022/01/26 11:17:28;;;;;;;11.15;9.95;;;;;;;8.62;47.00;99913.94;1807291;77;21045;-62
2022/01/26 11:19:57;;;;;;;11.18;9.75;;;;;;;8.64;46.96;99920.73;1816548;78;20925;-65
2022/01/26 11:22:29;;;;;;;12.50;10.15;;;;;;;8.67;46.92;99912.97;1813557;77;21080;-62
2022/01/26 11:24:55;;;;;;;11.45;9.70;;;;;;;8.71;46.89;99917.00;1746439;80;21052;-63
2022/01/26 11:27:21;;;;;;;13.00;9.85;;;;;;;8.74;46.86;99914.53;1748360;80;21021;-63
2022/01/26 11:29:53;;;;;;;12.13;10.03;;;;;;;8.77;46.82;99916.86;1774842;79;21064;-65
2022/01/26 11:32:32;;;;;;;10.78;9.68;;;;;;;8.79;46.81;99918.89;1775166;79;21041;-65
2022/01/26 11:34:57;;;;;;;10.90;9.08;;;;;;;8.82;46.74;99922.55;1769165;80;21043;-64
2022/01/26 11:37:40;;;;;;;12.05;9.13;;;;;;;8.83;46.73;99921.58;1779894;79;21525;-63
2022/01/26 11:45:28;;;;;;;10.93;8.95;;;;;;;8.84;46.69;99920.08;1754849;80;21092;-63
2022/01/26 11:48:08;;;;;;;12.88;9.53;;;;;;;8.85;46.66;99911.66;1747921;80;21497;-63
2022/01/26 11:50:36;;;;;;;11.83;9.30;;;;;;;8.84;46.67;99915.28;1780219;79;20982;-64
2022/01/26 11:53:07;;;;;;;11.12;8.95;;;;;;;8.83;46.67;99910.48;1774954;79;21026;-64
2022/01/26 11:55:59;;;;;;;10.58;8.45;;;;;;;8.83;46.66;99910.48;1773246;79;21551;-65
2022/01/26 11:58:33;;;;;;;9.60;8.13;;;;;;;8.83;46.66;99905.18;1760038;79;21063;-63
2022/01/26 12:01:16;;;;;;;9.60;7.92;;;;;;;8.83;46.65;99913.62;1773792;79;21195;-65
2022/01/26 12:03:46;;;;;;;9.95;8.18;;;;;;;8.82;46.66;99907.48;1769723;80;21096;-65
2022/01/26 12:06:21;;;;;;;9.48;7.33;;;;;;;8.82;46.65;99914.59;1764309;80;21057;-64
2022/01/26 12:08:42;;;;;;;9.40;7.92;;;;;;;8.81;46.66;99917.75;1757064;80;21990;-64
2022/01/26 12:11:14;;;;;;;10.68;8.75;;;;;;;8.80;46.65;99917.89;1757456;80;21058;-63
2022/01/26 12:13:44;;;;;;;8.93;7.40;;;;;;;8.80;46.67;99927.98;1735862;80;21605;-64
2022/01/26 12:16:20;;;;;;;8.05;7.22;;;;;;;8.79;46.67;99920.22;1740092;81;21086;-64
2022/01/26 12:18:57;;;;;;;9.58;8.40;;;;;;;8.79;46.68;99925.52;1736492;82;21510;-62
2022/01/26 12:35:52;;;;;;;9.13;7.03;;;;;;;8.75;46.67;99932.08;1713254;82;21070;-64
2022/01/26 12:41:25;;;;;;;8.00;6.30;;;;;;;8.71;46.69;99937.34;1735658;81;21112;-63
2022/01/26 12:43:49;;;;;;;9.15;7.08;;;;;;;8.71;46.69;99939.98;1735069;81;21464;-63
2022/01/26 12:46:25;;;;;;;8.93;7.08;;;;;;;8.69;46.74;99934.83;1733230;81;26147;-64
2022/01/26 12:49:03;;;;;;;8.60;6.55;;;;;;;8.68;46.73;99942.45;1758942;80;21014;-63
2022/01/26 12:51:31;;;;;;;8.95;7.47;;;;;;;8.67;46.76;99947.39;1764857;80;21103;-62
2022/01/26 12:54:00;;;;;;;9.23;7.65;;;;;;;8.67;46.76;99947.39;1767585;80;21207;-62
2022/01/26 12:56:29;;;;;;;8.53;6.35;;;;;;;8.66;46.77;99949.72;1743900;80;21058;-63
2022/01/26 12:59:04;;;;;;;8.68;6.90;;;;;;;8.65;46.78;99949.37;1743100;81;21110;-63
2022/01/26 13:01:30;;;;;;;8.85;6.90;;;;;;;8.65;46.76;99952.88;1746965;80;21018;-63
2022/01/26 13:03:59;;;;;;;8.45;6.47;;;;;;;8.64;46.76;99943.24;1766832;79;21030;-63
2022/01/26 13:06:31;;;;;;;8.38;6.65;;;;;;;8.64;46.77;99947.72;1800398;78;21792;-62
2022/01/26 13:09:00;;;;;;;8.48;6.60;;;;;;;8.64;46.77;99953.84;1797088;79;21037;-63
2022/01/26 13:11:31;;;;;;;8.53;6.60;;;;;;;8.63;46.76;99953.52;1790362;79;21058;-63
2022/01/26 13:14:24;;;;;;;7.75;6.67;;;;;;;8.63;46.75;99952.66;1794925;79;21572;-65
2022/01/26 13:16:46;;;;;;;6.78;5.90;;;;;;;8.63;46.75;99953.52;1788593;79;21046;-63
2022/01/26 13:19:53;;;;;;;8.35;6.62;;;;;;;8.62;46.72;99957.13;1770085;79;21204;-64
2022/01/26 13:22:15;;;;;;;7.30;5.95;;;;;;;8.63;46.71;99961.92;1786751;77;21047;-63
2022/01/26 13:24:38;;;;;;;7.17;6.37;;;;;;;8.62;46.70;99956.30;1795768;79;21100;-63
2022/01/26 13:27:16;;;;;;;7.20;6.00;;;;;;;8.61;46.68;99958.59;1794017;79;21059;-63
2022/01/26 13:29:49;;;;;;;8.03;6.25;;;;;;;8.60;46.66;99956.95;1796190;77;21093;-65